Time;durP1;ratioP1;P1;durP2;ratioP2;P2;SDS_P1;SDS_P2;PMS_P1;PMS_P2;Temp;Humidity;BMP_temperature;BMP_pressure;BME280_temperature;BME280_humidity;BME280_pressure;Samples;Min_cycle;Max_cycle;Signal;HPM_P1;HPM_P2
2020/12/11 00:00:06;;;;;;;19.73;16.25;;;3.10;91.50;;;;;;5036208;28;20105;-74
2020/12/11 00:02:35;;;;;;;20.83;16.85;;;3.00;91.50;;;;;;5035785;28;20029;-74
2020/12/11 00:05:02;;;;;;;21.42;16.33;;;2.90;91.50;;;;;;5018520;28;20497;-72
2020/12/11 00:07:28;;;;;;;19.13;15.95;;;2.90;91.60;;;;;;5036433;28;20040;-72
2020/12/11 00:09:53;;;;;;;21.50;16.67;;;2.80;91.70;;;;;;5035615;28;20092;-72
2020/12/11 00:12:19;;;;;;;21.35;17.25;;;2.80;91.80;;;;;;5036131;28;20448;-72
2020/12/11 00:14:44;;;;;;;21.27;17.70;;;2.70;91.80;;;;;;5036419;28;20017;-72
2020/12/11 00:17:10;;;;;;;19.42;16.17;;;2.70;91.90;;;;;;5035256;28;20024;-72
2020/12/11 00:19:35;;;;;;;20.45;17.10;;;2.70;91.90;;;;;;5036352;28;20021;-72
2020/12/11 00:22:01;;;;;;;21.38;16.73;;;2.60;92.00;;;;;;5035459;28;20375;-72
2020/12/11 00:24:26;;;;;;;21.55;17.70;;;2.60;92.00;;;;;;5035715;28;20052;-73
2020/12/11 00:26:52;;;;;;;21.45;18.00;;;2.60;92.10;;;;;;5036099;28;20044;-73
2020/12/11 00:29:17;;;;;;;20.88;16.55;;;2.60;92.10;;;;;;5035951;28;20041;-73
2020/12/11 00:31:43;;;;;;;22.27;17.05;;;2.60;92.10;;;;;;5017516;28;20025;-73
2020/12/11 00:34:08;;;;;;;22.98;18.60;;;2.70;92.10;;;;;;5035593;28;20060;-73
2020/12/11 00:36:34;;;;;;;20.55;16.98;;;2.70;92.10;;;;;;5035955;28;20033;-73
2020/12/11 00:38:59;;;;;;;20.83;17.02;;;2.70;92.10;;;;;;5017066;28;20040;-73
2020/12/11 00:41:25;;;;;;;20.23;16.90;;;2.70;92.10;;;;;;5035979;28;20021;-73
2020/12/11 00:43:50;;;;;;;20.05;17.08;;;2.80;92.00;;;;;;5035761;28;20036;-73
2020/12/11 00:46:23;;;;;;;21.42;17.38;;;2.80;92.00;;;;;;5034830;28;20049;-73
2020/12/11 00:48:49;;;;;;;18.83;16.25;;;2.80;92.00;;;;;;5018333;28;20052;-73
2020/12/11 00:51:20;;;;;;;25.60;18.33;;;2.80;92.00;;;;;;5015972;28;20118;-73
2020/12/11 00:53:46;;;;;;;23.08;17.92;;;2.80;92.00;;;;;;5035701;28;20021;-73
2020/12/11 00:56:12;;;;;;;24.13;16.90;;;2.80;92.00;;;;;;5035489;28;20021;-73
2020/12/11 00:58:37;;;;;;;22.38;17.88;;;2.80;91.90;;;;;;5034600;28;20032;-73
2020/12/11 01:01:03;;;;;;;27.05;18.35;;;2.80;91.90;;;;;;5035235;28;20029;-73
2020/12/11 01:03:28;;;;;;;23.33;17.92;;;2.90;91.90;;;;;;5035487;28;20018;-73
2020/12/11 01:05:54;;;;;;;22.08;17.45;;;2.80;91.90;;;;;;5034537;28;20100;-73
2020/12/11 01:08:19;;;;;;;23.98;18.58;;;2.90;91.90;;;;;;5017555;28;20037;-72
2020/12/11 01:10:44;;;;;;;26.00;19.23;;;2.90;91.90;;;;;;5017723;28;20047;-73
2020/12/11 01:13:10;;;;;;;23.90;18.15;;;2.90;91.90;;;;;;5034284;28;20022;-72
2020/12/11 01:15:35;;;;;;;25.27;18.63;;;2.90;91.90;;;;;;5017510;28;20033;-72
2020/12/11 01:18:01;;;;;;;23.65;18.73;;;2.90;91.80;;;;;;5034816;28;20120;-75
2020/12/11 01:20:27;;;;;;;23.83;18.45;;;2.90;91.80;;;;;;5034705;28;20044;-72
2020/12/11 01:22:52;;;;;;;23.95;18.48;;;2.90;91.80;;;;;;5034650;28;20102;-72
2020/12/11 01:25:18;;;;;;;23.90;18.17;;;2.90;91.80;;;;;;5035160;28;20022;-72
2020/12/11 01:27:44;;;;;;;21.63;17.40;;;2.90;91.80;;;;;;5016456;28;20036;-72
2020/12/11 01:30:09;;;;;;;22.15;18.35;;;3.00;91.80;;;;;;5034425;28;20049;-72
2020/12/11 01:32:35;;;;;;;27.15;19.73;;;3.00;91.80;;;;;;5034802;28;20496;-72
2020/12/11 01:35:00;;;;;;;24.63;19.13;;;3.00;91.80;;;;;;5034040;28;20355;-72
2020/12/11 01:37:26;;;;;;;23.50;18.75;;;3.00;91.80;;;;;;5034968;28;20033;-72
2020/12/11 01:39:53;;;;;;;25.33;20.10;;;3.00;91.70;;;;;;5016591;28;20025;-72
2020/12/11 01:42:18;;;;;;;23.73;18.08;;;3.00;91.70;;;;;;5034014;28;20032;-72
2020/12/11 01:44:49;;;;;;;26.58;19.58;;;2.90;91.70;;;;;;5034611;28;20030;-72
2020/12/11 01:47:16;;;;;;;26.02;19.83;;;2.90;91.80;;;;;;5034247;28;20041;-72
2020/12/11 01:49:42;;;;;;;24.90;17.48;;;2.90;91.80;;;;;;5033856;28;20021;-72
2020/12/11 01:52:08;;;;;;;22.65;18.30;;;2.90;91.80;;;;;;5034139;28;20037;-72
2020/12/11 01:54:34;;;;;;;24.55;19.58;;;2.90;91.70;;;;;;5033782;28;20020;-70
2020/12/11 01:57:04;;;;;;;24.83;19.00;;;2.90;91.80;;;;;;5016316;28;20441;-71
2020/12/11 01:59:36;;;;;;;23.52;17.73;;;2.80;91.80;;;;;;5034168;28;20108;-70
2020/12/11 02:02:04;;;;;;;23.77;19.02;;;2.80;91.80;;;;;;5015489;28;20482;-70
2020/12/11 02:04:36;;;;;;;24.38;18.58;;;2.70;91.80;;;;;;5034282;28;20029;-71
2020/12/11 02:07:01;;;;;;;24.10;19.23;;;2.70;91.90;;;;;;5033931;28;20048;-71
2020/12/11 02:09:30;;;;;;;25.05;18.88;;;2.60;91.90;;;;;;5033234;28;20108;-71
2020/12/11 02:11:56;;;;;;;22.98;18.35;;;2.60;92.00;;;;;;5033684;28;20052;-71
2020/12/11 02:14:21;;;;;;;22.52;17.48;;;2.60;92.00;;;;;;5016447;28;20060;-72
2020/12/11 02:16:47;;;;;;;23.05;18.50;;;2.50;92.10;;;;;;5015761;28;20049;-71
2020/12/11 02:19:13;;;;;;;26.15;20.08;;;2.50;92.10;;;;;;5016108;28;20471;-71
2020/12/11 02:21:38;;;;;;;24.20;19.63;;;2.50;92.20;;;;;;5034051;28;20103;-72
2020/12/11 02:24:04;;;;;;;22.90;18.73;;;2.50;92.20;;;;;;5032933;28;20068;-71
2020/12/11 02:26:29;;;;;;;23.88;19.65;;;2.50;92.30;;;;;;5033876;28;20021;-72
2020/12/11 02:28:55;;;;;;;24.30;19.58;;;2.50;92.30;;;;;;5015685;28;20502;-72
2020/12/11 02:31:20;;;;;;;27.55;19.67;;;2.40;92.30;;;;;;5015509;28;20356;-72
2020/12/11 02:33:46;;;;;;;26.23;19.98;;;2.40;92.40;;;;;;5033635;28;20095;-73
2020/12/11 02:36:11;;;;;;;23.35;17.80;;;2.40;92.40;;;;;;5033504;28;20079;-72
2020/12/11 02:38:37;;;;;;;22.45;17.90;;;2.30;92.40;;;;;;5032983;28;20033;-72
2020/12/11 02:41:02;;;;;;;23.00;18.70;;;2.30;92.50;;;;;;5033348;28;20026;-72
2020/12/11 02:43:37;;;;;;;23.80;18.60;;;2.30;92.50;;;;;;5033339;28;20025;-72
2020/12/11 02:46:04;;;;;;;24.65;19.42;;;2.20;92.50;;;;;;5032688;28;20060;-72
2020/12/11 02:48:30;;;;;;;25.35;19.48;;;2.20;92.60;;;;;;5033591;28;20508;-72
2020/12/11 02:50:57;;;;;;;24.52;18.38;;;2.20;92.60;;;;;;5032616;28;20026;-72
2020/12/11 02:53:22;;;;;;;21.98;17.92;;;2.20;92.70;;;;;;5033451;28;20109;-72
2020/12/11 02:55:48;;;;;;;29.58;20.77;;;2.20;92.70;;;;;;5015729;28;20052;-71
2020/12/11 02:58:13;;;;;;;23.67;18.95;;;2.10;92.90;;;;;;5014656;28;20433;-71
2020/12/11 03:00:39;;;;;;;22.73;18.27;;;2.10;92.80;;;;;;5015503;28;20045;-72
2020/12/11 03:03:04;;;;;;;25.60;19.30;;;2.10;92.90;;;;;;5032949;28;20075;-72
2020/12/11 03:05:30;;;;;;;27.15;19.17;;;2.10;92.90;;;;;;5014867;28;20049;-71
2020/12/11 03:07:55;;;;;;;25.95;19.42;;;2.10;92.90;;;;;;5032277;28;20029;-73
2020/12/11 03:10:21;;;;;;;25.80;20.02;;;2.00;93.00;;;;;;5038606;28;20093;-72
2020/12/11 03:12:46;;;;;;;24.98;19.90;;;2.10;93.10;;;;;;5019635;28;20087;-72
2020/12/11 03:15:12;;;;;;;28.08;20.42;;;2.00;93.10;;;;;;5037907;28;20573;-72
2020/12/11 03:17:38;;;;;;;24.33;19.23;;;2.10;93.40;;;;;;5038586;28;20390;-72
2020/12/11 03:20:03;;;;;;;27.15;20.85;;;2.10;93.10;;;;;;5019268;28;20501;-72
2020/12/11 03:22:29;;;;;;;28.05;20.83;;;2.10;93.10;;;;;;5020368;28;20025;-71
2020/12/11 03:24:54;;;;;;;27.13;20.77;;;2.10;93.10;;;;;;5038194;28;20083;-72
2020/12/11 03:27:20;;;;;;;25.73;19.65;;;2.00;93.10;;;;;;5020128;28;20029;-72
2020/12/11 03:29:45;;;;;;;27.25;21.13;;;2.00;93.10;;;;;;5020423;28;20051;-71
2020/12/11 03:32:11;;;;;;;28.25;21.20;;;2.10;93.10;;;;;;5011639;28;20040;-71
2020/12/11 03:34:36;;;;;;;27.75;20.50;;;2.00;93.10;;;;;;5048731;28;20032;-70
2020/12/11 03:37:02;;;;;;;26.92;21.02;;;2.00;93.10;;;;;;5049172;28;20022;-70
2020/12/11 03:39:27;;;;;;;30.63;21.10;;;2.00;93.10;;;;;;5032817;28;20474;-71
2020/12/11 03:41:53;;;;;;;26.70;21.00;;;2.10;93.10;;;;;;5014080;28;20022;-72
2020/12/11 03:44:19;;;;;;;28.40;20.95;;;2.00;93.00;;;;;;5032711;28;20017;-72
2020/12/11 03:46:45;;;;;;;26.63;20.63;;;2.10;93.00;;;;;;5032533;28;20026;-72
2020/12/11 03:49:11;;;;;;;29.30;21.45;;;2.10;93.00;;;;;;5031805;28;20064;-71
2020/12/11 03:51:36;;;;;;;28.17;20.95;;;2.00;93.00;;;;;;5032295;28;20026;-71
2020/12/11 03:54:03;;;;;;;28.45;20.98;;;2.00;93.00;;;;;;5012721;28;20052;-72
2020/12/11 03:56:28;;;;;;;29.55;20.80;;;2.00;93.10;;;;;;5026551;28;20014;-72
2020/12/11 03:58:54;;;;;;;28.65;20.92;;;2.00;93.10;;;;;;5047276;28;20081;-72
2020/12/11 04:01:19;;;;;;;25.73;20.10;;;2.00;93.10;;;;;;5050149;28;20493;-71
2020/12/11 04:03:45;;;;;;;27.23;20.08;;;1.90;93.00;;;;;;5032276;28;20370;-71
2020/12/11 04:06:14;;;;;;;26.85;20.75;;;1.90;93.10;;;;;;5029357;28;20134;-72
2020/12/11 04:08:40;;;;;;;27.23;20.52;;;1.90;93.10;;;;;;5035322;28;20044;-71
2020/12/11 04:11:07;;;;;;;29.75;21.42;;;1.80;93.20;;;;;;5037658;28;20092;-72
2020/12/11 04:13:34;;;;;;;28.02;20.38;;;1.80;93.20;;;;;;5032155;28;20033;-71
2020/12/11 04:16:00;;;;;;;26.85;20.88;;;1.70;93.20;;;;;;5031662;28;20101;-71
2020/12/11 04:18:25;;;;;;;25.80;20.30;;;1.70;93.40;;;;;;5032615;28;20045;-72
2020/12/11 04:20:51;;;;;;;28.45;21.33;;;1.70;93.40;;;;;;5032593;28;20028;-72
2020/12/11 04:23:17;;;;;;;27.55;20.58;;;1.70;93.50;;;;;;5030845;28;20026;-72
2020/12/11 04:25:42;;;;;;;28.48;20.58;;;1.70;93.60;;;;;;5030713;28;20548;-72
2020/12/11 04:28:08;;;;;;;25.58;20.17;;;1.60;93.60;;;;;;5035561;28;20120;-72
2020/12/11 04:30:33;;;;;;;25.92;19.83;;;1.60;93.70;;;;;;5034940;28;20038;-72
2020/12/11 04:32:59;;;;;;;27.83;20.42;;;1.60;93.70;;;;;;5035679;28;20021;-71
2020/12/11 04:35:24;;;;;;;25.60;19.73;;;1.60;93.70;;;;;;5035974;28;20026;-71
2020/12/11 04:37:51;;;;;;;24.92;20.35;;;1.60;93.80;;;;;;5035435;28;20033;-71
2020/12/11 04:40:16;;;;;;;26.95;21.00;;;1.70;93.80;;;;;;5035751;28;20024;-72
2020/12/11 04:42:46;;;;;;;25.50;19.90;;;1.70;93.80;;;;;;5017967;28;20029;-71
2020/12/11 04:45:13;;;;;;;26.65;20.83;;;1.70;93.80;;;;;;5034930;28;20021;-71
2020/12/11 04:47:43;;;;;;;26.45;20.38;;;1.80;93.90;;;;;;5017933;28;20068;-72
2020/12/11 04:50:16;;;;;;;27.80;20.48;;;1.80;93.80;;;;;;5035421;28;20025;-72
2020/12/11 04:52:44;;;;;;;27.02;20.30;;;1.80;93.80;;;;;;5035199;28;20032;-72
2020/12/11 04:55:15;;;;;;;28.05;20.58;;;1.90;93.80;;;;;;5035378;28;20390;-72
2020/12/11 04:57:48;;;;;;;27.77;20.63;;;1.90;93.80;;;;;;5017183;28;20158;-72
2020/12/11 05:00:16;;;;;;;26.13;20.25;;;1.90;93.80;;;;;;5035232;28;20021;-71
2020/12/11 05:02:43;;;;;;;26.33;21.08;;;2.00;93.80;;;;;;5035429;28;20022;-71
2020/12/11 05:05:10;;;;;;;30.13;21.83;;;2.00;93.70;;;;;;5034440;28;20026;-71
2020/12/11 05:07:36;;;;;;;27.17;19.67;;;2.10;93.70;;;;;;5035343;28;20447;-71
2020/12/11 05:10:03;;;;;;;24.98;19.75;;;2.10;93.70;;;;;;5017358;28;20068;-72
2020/12/11 05:12:28;;;;;;;26.75;20.90;;;2.20;93.60;;;;;;5034523;28;20033;-72
2020/12/11 05:14:56;;;;;;;28.27;20.20;;;2.20;93.60;;;;;;5035042;28;20014;-72
2020/12/11 05:17:27;;;;;;;24.27;19.63;;;2.20;93.50;;;;;;5035208;28;20073;-71
2020/12/11 05:19:53;;;;;;;26.05;19.48;;;2.20;93.50;;;;;;5016484;28;20060;-71
2020/12/11 05:22:21;;;;;;;25.52;19.63;;;2.20;93.40;;;;;;5035136;28;20026;-71
2020/12/11 05:24:51;;;;;;;26.02;20.17;;;2.30;93.40;;;;;;5017267;28;20021;-71
2020/12/11 05:27:27;;;;;;;22.88;18.75;;;2.30;93.30;;;;;;5034142;28;20543;-71
2020/12/11 05:29:53;;;;;;;22.27;18.70;;;2.30;93.30;;;;;;5034521;28;20045;-71
2020/12/11 05:32:43;;;;;;;26.70;20.50;;;2.30;93.30;;;;;;5017133;28;20044;-71
2020/12/11 05:35:14;;;;;;;24.50;18.67;;;2.30;93.20;;;;;;5034552;28;20364;-71
2020/12/11 05:37:51;;;;;;;24.80;18.73;;;2.30;93.20;;;;;;5034449;28;20466;-71
2020/12/11 05:40:40;;;;;;;26.13;19.65;;;2.40;93.20;;;;;;5034354;28;20060;-71
2020/12/11 05:43:22;;;;;;;24.52;20.00;;;2.40;93.20;;;;;;5016620;28;20025;-71
2020/12/11 05:45:56;;;;;;;22.02;18.52;;;2.50;93.20;;;;;;5016960;28;20022;-72
2020/12/11 05:48:26;;;;;;;23.42;17.95;;;2.60;93.10;;;;;;5033731;28;20037;-72
2020/12/11 05:50:52;;;;;;;24.52;18.65;;;2.80;93.00;;;;;;5034332;28;20029;-71
2020/12/11 05:53:18;;;;;;;24.02;19.35;;;2.80;92.90;;;;;;5034420;28;20103;-71
2020/12/11 05:55:45;;;;;;;23.90;19.98;;;2.90;92.70;;;;;;5033907;28;20417;-71
2020/12/11 05:58:11;;;;;;;24.73;19.60;;;3.00;92.60;;;;;;5016402;28;20022;-70
2020/12/11 06:00:39;;;;;;;24.42;19.38;;;3.10;92.50;;;;;;5033954;28;20018;-70
2020/12/11 06:03:06;;;;;;;24.52;19.52;;;3.10;92.40;;;;;;5033892;28;20021;-71
2020/12/11 06:05:36;;;;;;;24.95;19.35;;;3.20;92.30;;;;;;5034455;28;20017;-71
2020/12/11 06:08:08;;;;;;;25.45;19.80;;;3.30;92.20;;;;;;5015524;28;20112;-71
2020/12/11 06:10:34;;;;;;;25.70;18.85;;;3.30;92.00;;;;;;5016494;28;20029;-71
2020/12/11 06:13:03;;;;;;;23.42;19.13;;;3.30;91.90;;;;;;5033685;28;20033;-72
2020/12/11 06:15:35;;;;;;;24.80;20.02;;;3.30;91.90;;;;;;5033504;28;20104;-71
2020/12/11 06:18:17;;;;;;;24.48;18.60;;;3.30;91.80;;;;;;5033767;28;20540;-70
2020/12/11 06:20:47;;;;;;;;;;;3.30;91.80;;;;;;5034440;28;20045;-72
2020/12/11 06:23:24;;;;;;;24.73;18.50;;;3.40;91.90;;;;;;5015129;28;20391;-71
2020/12/11 06:25:57;;;;;;;24.63;19.27;;;3.40;91.70;;;;;;5016220;28;20048;-71
2020/12/11 06:28:35;;;;;;;24.20;19.52;;;3.40;91.70;;;;;;5033750;28;20037;-71
2020/12/11 06:31:09;;;;;;;21.10;16.88;;;3.50;91.70;;;;;;5032817;28;20049;-71
2020/12/11 06:33:36;;;;;;;24.42;19.83;;;3.50;91.60;;;;;;5016126;28;20470;-73
2020/12/11 06:36:04;;;;;;;22.42;18.25;;;3.50;91.60;;;;;;5032904;28;20022;-71
2020/12/11 06:38:48;;;;;;;22.38;17.75;;;3.50;91.60;;;;;;5033757;28;20359;-71
2020/12/11 06:41:35;;;;;;;21.27;17.67;;;3.50;91.50;;;;;;5033309;28;20474;-71
2020/12/11 06:44:09;;;;;;;23.05;17.77;;;3.60;91.40;;;;;;5019006;28;20386;-71
2020/12/11 06:46:35;;;;;;;21.55;17.27;;;3.60;91.30;;;;;;5033739;28;20490;-71
2020/12/11 06:49:17;;;;;;;21.80;18.80;;;3.60;91.30;;;;;;5014778;28;20036;-70
2020/12/11 06:51:42;;;;;;;23.42;18.45;;;3.70;91.20;;;;;;5032940;28;20021;-71
2020/12/11 06:54:08;;;;;;;23.05;17.67;;;3.70;91.20;;;;;;5033591;28;20036;-72
2020/12/11 06:56:40;;;;;;;20.90;17.40;;;3.70;91.10;;;;;;5033477;28;20055;-72
2020/12/11 06:59:19;;;;;;;20.25;17.50;;;3.70;91.00;;;;;;5032541;28;20478;-72
2020/12/11 07:01:45;;;;;;;22.50;18.20;;;3.70;91.00;;;;;;5033144;28;20021;-72
2020/12/11 07:04:10;;;;;;;23.10;17.85;;;3.70;91.00;;;;;;5032367;28;20510;-72
2020/12/11 07:06:36;;;;;;;21.00;17.00;;;3.80;91.00;;;;;;5015291;28;20485;-71
2020/12/11 07:09:04;;;;;;;21.85;17.55;;;3.80;91.00;;;;;;5015141;28;20036;-72
2020/12/11 07:11:30;;;;;;;22.42;18.27;;;3.80;90.90;;;;;;5014754;28;20378;-72
2020/12/11 07:13:56;;;;;;;24.35;17.50;;;3.80;90.90;;;;;;5014839;28;20025;-72
2020/12/11 07:16:21;;;;;;;24.95;18.58;;;3.80;90.80;;;;;;5015405;28;20048;-72
2020/12/11 07:18:48;;;;;;;21.83;18.05;;;3.80;90.90;;;;;;5014582;28;20070;-72
2020/12/11 07:21:14;;;;;;;19.80;16.52;;;3.90;90.90;;;;;;5033044;28;20017;-71
2020/12/11 07:23:40;;;;;;;21.88;17.35;;;3.80;90.80;;;;;;5032882;28;20029;-70
2020/12/11 07:26:06;;;;;;;23.02;17.55;;;3.80;90.70;;;;;;5031990;28;20124;-71
2020/12/11 07:28:32;;;;;;;22.95;17.95;;;3.90;90.70;;;;;;5032848;28;20482;-73
2020/12/11 07:30:58;;;;;;;20.92;16.77;;;3.90;90.60;;;;;;5032633;28;20129;-71
2020/12/11 07:33:33;;;;;;;23.80;18.20;;;3.90;90.60;;;;;;5014354;28;20536;-72
2020/12/11 07:36:00;;;;;;;20.35;17.17;;;3.90;90.70;;;;;;5032662;28;20021;-71
2020/12/11 07:38:27;;;;;;;22.70;17.55;;;4.00;90.80;;;;;;5015091;28;20482;-71
2020/12/11 07:40:56;;;;;;;22.27;17.58;;;4.00;90.60;;;;;;5013965;28;20018;-71
2020/12/11 07:43:22;;;;;;;22.00;16.05;;;4.00;90.50;;;;;;5032740;28;20029;-72
2020/12/11 07:45:48;;;;;;;21.63;16.85;;;4.00;90.30;;;;;;5032679;28;20025;-71
2020/12/11 07:48:14;;;;;;;23.13;16.38;;;4.10;90.30;;;;;;5031556;28;20034;-72
2020/12/11 07:50:40;;;;;;;21.80;17.15;;;4.10;90.30;;;;;;5032606;28;20037;-71
2020/12/11 07:53:10;;;;;;;22.25;17.33;;;4.20;90.20;;;;;;5014498;28;20025;-71
2020/12/11 07:55:36;;;;;;;21.60;16.45;;;4.20;89.70;;;;;;5032740;28;20026;-71
2020/12/11 07:58:03;;;;;;;22.98;17.40;;;4.30;89.80;;;;;;5032274;28;20044;-71
2020/12/11 08:00:30;;;;;;;21.25;16.92;;;4.30;89.80;;;;;;5033155;28;20025;-71
2020/12/11 08:02:57;;;;;;;20.35;16.40;;;4.40;89.60;;;;;;5036169;28;20554;-72
2020/12/11 08:05:24;;;;;;;18.95;16.27;;;4.50;89.60;;;;;;5017853;28;20020;-72
2020/12/11 08:07:53;;;;;;;17.85;15.52;;;4.50;89.10;;;;;;5035712;28;20037;-72
2020/12/11 08:10:23;;;;;;;23.08;16.17;;;4.60;88.90;;;;;;5046001;28;20070;-73
2020/12/11 08:12:50;;;;;;;19.80;16.55;;;4.60;89.00;;;;;;5043007;28;20041;-72
2020/12/11 08:15:33;;;;;;;20.10;15.88;;;4.70;88.50;;;;;;5045353;28;20033;-72
2020/12/11 08:18:12;;;;;;;19.00;15.80;;;4.70;88.40;;;;;;5024556;28;20108;-70
2020/12/11 08:20:47;;;;;;;19.48;15.82;;;4.80;88.20;;;;;;5041230;28;20033;-71
2020/12/11 08:23:44;;;;;;;21.00;15.93;;;4.80;87.70;;;;;;5022061;28;20040;-72
2020/12/11 08:26:12;;;;;;;22.50;16.48;;;4.90;87.70;;;;;;5035908;28;20022;-72
2020/12/11 08:28:38;;;;;;;19.33;15.73;;;4.90;87.60;;;;;;5053638;28;20074;-71
2020/12/11 08:31:16;;;;;;;21.38;16.63;;;4.90;87.50;;;;;;5037403;28;20072;-72
2020/12/11 08:33:42;;;;;;;20.17;16.02;;;5.00;87.40;;;;;;5037863;28;20035;-72
2020/12/11 08:36:26;;;;;;;20.20;16.15;;;5.00;87.30;;;;;;5031372;28;20111;-74
2020/12/11 08:39:13;;;;;;;21.08;17.30;;;5.00;87.10;;;;;;5014944;28;20017;-72
2020/12/11 08:49:49;;;;;;;31.73;16.77;;;5.00;86.90;;;;;;5043909;28;20083;-72
2020/12/11 08:52:15;;;;;;;22.58;17.05;;;5.00;86.80;;;;;;5035365;28;20459;-72
2020/12/11 08:54:41;;;;;;;19.50;16.35;;;5.00;86.90;;;;;;5035251;28;20105;-72
2020/12/11 08:57:06;;;;;;;20.02;16.85;;;5.00;86.90;;;;;;5016745;28;20017;-72
2020/12/11 08:59:32;;;;;;;20.83;16.42;;;5.10;87.00;;;;;;5035212;28;20029;-73
2020/12/11 09:02:00;;;;;;;21.90;17.02;;;5.10;87.00;;;;;;5015946;28;20017;-73
2020/12/11 09:04:26;;;;;;;20.85;16.67;;;5.10;87.00;;;;;;5054667;28;20100;-73
2020/12/11 09:06:52;;;;;;;21.02;16.75;;;5.20;86.80;;;;;;5044671;28;20113;-72
2020/12/11 09:09:17;;;;;;;18.50;15.40;;;5.20;86.70;;;;;;5035246;28;20474;-72
2020/12/11 09:11:43;;;;;;;20.35;15.60;;;5.20;86.70;;;;;;5033934;28;20025;-73
2020/12/11 09:14:08;;;;;;;18.65;15.48;;;5.20;86.60;;;;;;5034564;28;20028;-73
2020/12/11 09:16:34;;;;;;;20.50;15.60;;;5.20;86.70;;;;;;5031753;28;20027;-72
2020/12/11 09:18:59;;;;;;;18.67;15.70;;;5.30;86.80;;;;;;5029193;28;20021;-73
2020/12/11 09:21:27;;;;;;;19.77;16.63;;;5.30;87.20;;;;;;5053302;28;20055;-72
2020/12/11 09:23:53;;;;;;;21.02;16.33;;;5.20;87.50;;;;;;5025388;28;20076;-73
2020/12/11 09:26:19;;;;;;;19.58;15.98;;;5.20;88.00;;;;;;5014527;28;20401;-73
2020/12/11 09:28:49;;;;;;;19.08;16.35;;;5.20;88.20;;;;;;5014895;28;20034;-72
2020/12/11 09:31:19;;;;;;;21.52;17.00;;;5.20;88.50;;;;;;5014424;28;20074;-72
2020/12/11 09:33:45;;;;;;;19.77;16.90;;;5.20;88.70;;;;;;5013771;28;20107;-71
2020/12/11 09:36:10;;;;;;;21.15;17.52;;;5.20;89.00;;;;;;5034279;28;20041;-72
2020/12/11 09:38:36;;;;;;;19.30;16.17;;;5.20;89.20;;;;;;5034574;28;20017;-72
2020/12/11 09:41:04;;;;;;;19.77;16.75;;;5.20;89.40;;;;;;5033622;28;20022;-72
2020/12/11 09:56:57;;;;;;;21.30;17.23;;;5.30;90.10;;;;;;5016828;28;20029;-72
2020/12/11 09:59:35;;;;;;;19.98;17.20;;;5.40;90.10;;;;;;5034300;28;20033;-72
2020/12/11 10:04:26;;;;;;;19.45;16.05;;;5.40;90.00;;;;;;5033720;28;20029;-72
2020/12/11 10:06:52;;;;;;;19.08;16.73;;;5.40;90.00;;;;;;5015194;28;20028;-72
2020/12/11 10:09:17;;;;;;;19.45;16.23;;;5.40;90.10;;;;;;5034338;28;20031;-73
2020/12/11 10:11:43;;;;;;;18.73;16.25;;;5.40;90.00;;;;;;5034267;28;20096;-72
2020/12/11 10:16:53;;;;;;;20.33;17.25;;;5.40;90.10;;;;;;5033897;28;20017;-72
2020/12/11 10:19:20;;;;;;;19.02;15.60;;;5.50;90.10;;;;;;5015884;28;20385;-74
2020/12/11 10:21:49;;;;;;;19.67;16.48;;;5.50;90.00;;;;;;5015181;28;20100;-73
2020/12/11 10:24:16;;;;;;;20.08;17.00;;;5.50;90.00;;;;;;5032412;28;20482;-73
2020/12/11 10:26:42;;;;;;;18.40;16.05;;;5.60;90.10;;;;;;5016026;28;20021;-72
2020/12/11 10:29:07;;;;;;;17.65;15.13;;;5.60;90.00;;;;;;5014857;28;20036;-73
2020/12/11 10:31:33;;;;;;;21.83;16.45;;;5.60;90.10;;;;;;5033443;28;20124;-71
2020/12/11 10:33:59;;;;;;;19.70;14.48;;;5.70;90.10;;;;;;5032728;28;20466;-73
2020/12/11 10:36:31;;;;;;;19.45;15.80;;;5.70;90.00;;;;;;5015094;28;20021;-73
2020/12/11 10:38:57;;;;;;;18.02;15.57;;;5.90;89.80;;;;;;5033194;28;20026;-72
2020/12/11 10:41:23;;;;;;;18.63;16.63;;;5.90;89.30;;;;;;5015428;28;20036;-72
2020/12/11 10:43:49;;;;;;;19.85;15.20;;;6.00;89.30;;;;;;5032917;28;20028;-72
2020/12/11 10:46:15;;;;;;;19.65;16.10;;;6.10;89.40;;;;;;5013221;28;20085;-72
2020/12/11 10:48:40;;;;;;;21.17;15.80;;;6.10;88.80;;;;;;5028637;28;20041;-72
2020/12/11 10:51:12;;;;;;;19.13;16.02;;;6.20;88.60;;;;;;5032519;28;20472;-72
2020/12/11 10:53:37;;;;;;;17.30;15.07;;;6.20;88.60;;;;;;5015478;28;20084;-72
2020/12/11 10:56:09;;;;;;;20.40;15.82;;;6.20;88.50;;;;;;5016926;28;20102;-72
2020/12/11 10:58:35;;;;;;;;;;;6.20;88.40;;;;;;5014782;28;20048;-74
2020/12/11 11:01:06;;;;;;;18.35;15.27;;;6.20;88.60;;;;;;5018929;28;20008;-72
2020/12/11 11:03:32;;;;;;;13.90;11.88;;;6.30;88.60;;;;;;5010687;28;20017;-72
2020/12/11 11:06:42;;;;;;;16.50;14.57;;;6.30;88.80;;;;;;5035120;28;20179;-72
2020/12/11 11:11:46;;;;;;;18.70;13.98;;;6.30;88.80;;;;;;5028768;28;20086;-72
2020/12/11 11:17:01;;;;;;;18.60;14.65;;;6.30;89.10;;;;;;5053162;28;20036;-72
2020/12/11 11:25:01;;;;;;;22.52;17.33;;;6.30;89.40;;;;;;5036930;28;20030;-72
2020/12/11 11:27:45;;;;;;;19.65;16.85;;;6.30;89.60;;;;;;5052383;28;20044;-74
2020/12/11 11:30:07;;;;;;;19.00;14.80;;;6.40;89.60;;;;;;5012325;28;20099;-74
2020/12/11 11:32:35;;;;;;;18.58;15.02;;;6.40;89.60;;;;;;5012238;28;20105;-73
2020/12/11 11:35:00;;;;;;;18.17;15.85;;;6.40;89.80;;;;;;4995205;28;20030;-71
2020/12/11 11:37:27;;;;;;;18.48;14.88;;;6.40;89.70;;;;;;4995317;28;20025;-74
2020/12/11 11:39:53;;;;;;;16.15;14.45;;;6.50;89.70;;;;;;5013280;28;20033;-72
2020/12/11 11:42:19;;;;;;;17.45;15.10;;;6.50;89.70;;;;;;5018454;28;20363;-72
2020/12/11 11:47:20;;;;;;;16.05;14.35;;;6.50;89.90;;;;;;5031848;28;20089;-72
2020/12/11 11:50:14;;;;;;;17.75;15.85;;;6.50;89.80;;;;;;5014856;28;20381;-72
2020/12/11 11:52:43;;;;;;;18.08;15.13;;;6.60;89.80;;;;;;5031912;28;20148;-73
2020/12/11 11:55:12;;;;;;;17.88;15.85;;;6.60;89.80;;;;;;5014766;28;20083;-71
2020/12/11 11:57:39;;;;;;;16.92;14.55;;;6.50;89.70;;;;;;5032359;28;20036;-70
2020/12/11 12:00:09;;;;;;;17.27;15.27;;;6.50;89.80;;;;;;5013901;28;20144;-71
2020/12/11 12:02:34;;;;;;;19.65;15.45;;;6.50;89.90;;;;;;5032268;28;20370;-72
2020/12/11 12:05:01;;;;;;;18.10;14.93;;;6.50;90.00;;;;;;5014327;28;20124;-75
2020/12/11 12:07:28;;;;;;;18.75;15.90;;;6.50;90.00;;;;;;5031798;28;20433;-75
2020/12/11 12:09:54;;;;;;;19.40;14.77;;;6.50;90.10;;;;;;5032176;28;20010;-72
2020/12/11 12:12:19;;;;;;;17.85;14.32;;;6.40;90.10;;;;;;5032230;28;20039;-74
2020/12/11 12:14:47;;;;;;;17.88;14.18;;;6.50;90.20;;;;;;5013987;28;20018;-79
2020/12/11 12:17:12;;;;;;;18.42;14.50;;;6.40;90.20;;;;;;5032115;28;20022;-77
2020/12/11 12:19:43;;;;;;;17.58;14.82;;;6.50;90.30;;;;;;5014613;28;20096;-76
2020/12/11 12:30:03;;;;;;;15.50;13.68;;;6.50;90.40;;;;;;5031882;28;20525;-75
2020/12/11 12:32:33;;;;;;;17.90;14.57;;;6.50;90.40;;;;;;5014494;28;20022;-72
2020/12/11 12:35:01;;;;;;;17.15;13.90;;;6.50;90.40;;;;;;5031124;28;20470;-73
2020/12/11 12:37:41;;;;;;;17.38;13.80;;;6.60;90.50;;;;;;5032286;28;20048;-72
2020/12/11 12:45:25;;;;;;;15.77;13.93;;;6.60;90.60;;;;;;5031629;28;20540;-73
2020/12/11 12:47:50;;;;;;;18.98;14.35;;;6.60;90.50;;;;;;5033796;28;20029;-73
2020/12/11 12:50:16;;;;;;;17.27;13.18;;;6.70;90.50;;;;;;5034538;28;20080;-74
2020/12/11 12:52:42;;;;;;;17.02;14.32;;;6.70;90.50;;;;;;5017544;28;20561;-73
2020/12/11 12:55:08;;;;;;;14.40;12.70;;;6.70;90.70;;;;;;5017302;28;20112;-74
2020/12/11 12:57:40;;;;;;;15.90;14.27;;;6.70;90.40;;;;;;5034593;28;20021;-74
2020/12/11 13:05:31;;;;;;;16.30;13.80;;;6.80;90.50;;;;;;5034528;28;20042;-73
2020/12/11 13:07:57;;;;;;;15.35;12.77;;;6.80;90.50;;;;;;5034745;28;20103;-73
2020/12/11 13:10:23;;;;;;;22.58;13.50;;;6.80;90.50;;;;;;5016601;28;20450;-73
2020/12/11 13:12:49;;;;;;;16.02;13.35;;;6.80;90.50;;;;;;5034578;28;20048;-74
2020/12/11 13:15:15;;;;;;;14.23;12.63;;;6.80;90.60;;;;;;5034702;28;20021;-73
2020/12/11 13:17:40;;;;;;;17.60;13.00;;;6.80;90.60;;;;;;5034407;28;20091;-72
2020/12/11 13:20:11;;;;;;;16.77;13.55;;;6.80;90.60;;;;;;5016713;28;20104;-72
2020/12/11 13:28:08;;;;;;;14.25;12.23;;;6.80;90.70;;;;;;4954098;29;20057;-73
2020/12/11 13:30:34;;;;;;;15.07;12.88;;;6.70;90.70;;;;;;4938246;29;20063;-73
2020/12/11 13:33:00;;;;;;;13.45;12.05;;;6.70;91.00;;;;;;4990405;28;20064;-73
2020/12/11 13:35:25;;;;;;;12.38;11.07;;;6.70;90.80;;;;;;5034608;28;20021;-73
2020/12/11 13:37:51;;;;;;;13.10;11.80;;;6.70;90.80;;;;;;5033758;28;20105;-73
2020/12/11 13:40:17;;;;;;;17.25;11.82;;;6.70;90.90;;;;;;5034873;28;20021;-73
2020/12/11 13:42:43;;;;;;;13.07;11.68;;;6.70;90.90;;;;;;5016738;28;20017;-73
2020/12/11 13:45:09;;;;;;;14.00;11.00;;;6.70;90.90;;;;;;5033529;28;20429;-72